sensor_id;sensor_type;location;lat;lon;timestamp;pressure;altitude;pressure_sealevel;temperature;humidity
73024;BME280;61199;47.526;8.538;2023-02-01T00:00:22;97379.78;;;4.04;71.76
73024;BME280;61199;47.526;8.538;2023-02-01T00:02:48;97373.09;;;4.17;71.22
73024;BME280;61199;47.526;8.538;2023-02-01T00:05:15;97374.16;;;4.13;71.33
73024;BME280;61199;47.526;8.538;2023-02-01T00:07:41;97371.56;;;4.13;70.30
73024;BME280;61199;47.526;8.538;2023-02-01T00:10:08;97379.94;;;4.18;70.92
73024;BME280;61199;47.526;8.538;2023-02-01T00:12:35;97376.00;;;4.28;70.51
73024;BME280;61199;47.526;8.538;2023-02-01T00:15:01;97373.13;;;4.34;69.55
73024;BME280;61199;47.526;8.538;2023-02-01T00:17:28;97371.19;;;4.21;69.91
73024;BME280;61199;47.526;8.538;2023-02-01T00:19:54;97362.13;;;4.12;70.13
73024;BME280;61199;47.526;8.538;2023-02-01T00:22:20;97364.34;;;4.01;70.05
73024;BME280;61199;47.526;8.538;2023-02-01T00:24:47;97355.06;;;3.97;70.14
73024;BME280;61199;47.526;8.538;2023-02-01T00:27:13;97354.78;;;4.03;70.23
73024;BME280;61199;47.526;8.538;2023-02-01T00:29:44;97351.63;;;3.97;70.16
73024;BME280;61199;47.526;8.538;2023-02-01T00:32:11;97348.25;;;3.95;70.42
73024;BME280;61199;47.526;8.538;2023-02-01T00:34:38;97344.56;;;3.82;71.08
73024;BME280;61199;47.526;8.538;2023-02-01T00:37:04;97348.56;;;3.89;70.82
73024;BME280;61199;47.526;8.538;2023-02-01T00:39:30;97347.16;;;3.82;70.93
73024;BME280;61199;47.526;8.538;2023-02-01T00:41:57;97358.78;;;3.73;70.78
73024;BME280;61199;47.526;8.538;2023-02-01T00:44:23;97347.38;;;3.77;70.70
73024;BME280;61199;47.526;8.538;2023-02-01T00:46:50;97351.50;;;3.81;70.78
73024;BME280;61199;47.526;8.538;2023-02-01T00:49:16;97338.53;;;3.81;70.50
73024;BME280;61199;47.526;8.538;2023-02-01T00:51:42;97330.50;;;3.87;70.80
73024;BME280;61199;47.526;8.538;2023-02-01T00:54:09;97337.19;;;3.91;70.18
73024;BME280;61199;47.526;8.538;2023-02-01T00:56:35;97332.88;;;3.92;70.14
73024;BME280;61199;47.526;8.538;2023-02-01T00:59:02;97333.50;;;3.78;70.68
73024;BME280;61199;47.526;8.538;2023-02-01T01:01:28;97325.75;;;3.78;70.92
73024;BME280;61199;47.526;8.538;2023-02-01T01:03:57;97314.78;;;3.90;70.37
73024;BME280;61199;47.526;8.538;2023-02-01T01:06:26;97322.13;;;3.99;70.13
73024;BME280;61199;47.526;8.538;2023-02-01T01:08:54;97317.25;;;3.93;69.86
73024;BME280;61199;47.526;8.538;2023-02-01T01:11:27;97317.91;;;3.80;70.75
73024;BME280;61199;47.526;8.538;2023-02-01T01:13:55;97320.88;;;3.89;70.65
73024;BME280;61199;47.526;8.538;2023-02-01T01:16:23;97322.66;;;3.89;70.49
73024;BME280;61199;47.526;8.538;2023-02-01T01:18:50;97322.44;;;3.93;70.55
73024;BME280;61199;47.526;8.538;2023-02-01T01:21:17;97319.53;;;3.99;70.03
73024;BME280;61199;47.526;8.538;2023-02-01T01:23:45;97334.81;;;4.05;69.50
73024;BME280;61199;47.526;8.538;2023-02-01T01:26:16;97332.06;;;4.08;69.67
73024;BME280;61199;47.526;8.538;2023-02-01T01:28:43;97330.53;;;4.04;69.47
73024;BME280;61199;47.526;8.538;2023-02-01T01:31:11;97322.44;;;3.93;69.66
73024;BME280;61199;47.526;8.538;2023-02-01T01:33:38;97327.03;;;3.87;70.29
73024;BME280;61199;47.526;8.538;2023-02-01T01:36:06;97322.09;;;3.82;70.20
73024;BME280;61199;47.526;8.538;2023-02-01T01:38:32;97319.53;;;3.99;69.67
73024;BME280;61199;47.526;8.538;2023-02-01T01:40:59;97320.81;;;3.91;70.29
73024;BME280;61199;47.526;8.538;2023-02-01T01:43:25;97326.13;;;3.88;70.39
73024;BME280;61199;47.526;8.538;2023-02-01T01:45:51;97323.19;;;3.95;70.24
73024;BME280;61199;47.526;8.538;2023-02-01T01:48:26;97316.91;;;3.82;70.01
73024;BME280;61199;47.526;8.538;2023-02-01T01:51:01;97319.97;;;3.90;70.05
73024;BME280;61199;47.526;8.538;2023-02-01T01:53:37;97319.25;;;4.05;69.09
73024;BME280;61199;47.526;8.538;2023-02-01T01:56:04;97318.13;;;4.11;69.77
73024;BME280;61199;47.526;8.538;2023-02-01T01:58:32;97322.56;;;3.90;70.11
73024;BME280;61199;47.526;8.538;2023-02-01T02:00:59;97319.41;;;4.02;69.41
73024;BME280;61199;47.526;8.538;2023-02-01T02:03:37;97323.31;;;3.92;69.85
73024;BME280;61199;47.526;8.538;2023-02-01T02:06:11;97322.59;;;4.07;69.68
73024;BME280;61199;47.526;8.538;2023-02-01T02:08:40;97324.44;;;4.05;69.47
73024;BME280;61199;47.526;8.538;2023-02-01T02:11:06;97316.03;;;4.00;70.01
73024;BME280;61199;47.526;8.538;2023-02-01T02:13:36;97315.09;;;3.84;70.26
73024;BME280;61199;47.526;8.538;2023-02-01T02:24:34;97312.41;;;4.04;69.78
73024;BME280;61199;47.526;8.538;2023-02-01T02:35:48;97310.84;;;4.00;70.02
73024;BME280;61199;47.526;8.538;2023-02-01T02:38:29;97298.91;;;3.98;70.38
73024;BME280;61199;47.526;8.538;2023-02-01T02:41:18;97293.25;;;3.71;71.39
73024;BME280;61199;47.526;8.538;2023-02-01T02:44:12;97298.03;;;3.62;72.22
73024;BME280;61199;47.526;8.538;2023-02-01T02:47:05;97300.84;;;3.39;72.76
73024;BME280;61199;47.526;8.538;2023-02-01T02:50:02;97303.22;;;3.43;73.04
73024;BME280;61199;47.526;8.538;2023-02-01T02:52:56;97301.25;;;3.30;73.29
73024;BME280;61199;47.526;8.538;2023-02-01T02:55:45;97305.88;;;3.42;72.80
73024;BME280;61199;47.526;8.538;2023-02-01T02:58:12;97307.28;;;3.30;73.48
73024;BME280;61199;47.526;8.538;2023-02-01T03:00:58;97301.03;;;3.34;73.66
73024;BME280;61199;47.526;8.538;2023-02-01T03:03:43;97295.66;;;3.57;72.42
73024;BME280;61199;47.526;8.538;2023-02-01T03:06:32;97291.19;;;3.42;72.37
73024;BME280;61199;47.526;8.538;2023-02-01T03:08:58;97283.91;;;3.50;73.04
73024;BME280;61199;47.526;8.538;2023-02-01T03:11:28;97283.34;;;3.44;72.47
73024;BME280;61199;47.526;8.538;2023-02-01T03:14:16;97282.00;;;3.35;72.75
73024;BME280;61199;47.526;8.538;2023-02-01T03:16:51;97284.91;;;3.29;73.21
73024;BME280;61199;47.526;8.538;2023-02-01T03:19:28;97291.53;;;3.35;73.09
73024;BME280;61199;47.526;8.538;2023-02-01T03:22:01;97295.78;;;3.54;72.19
73024;BME280;61199;47.526;8.538;2023-02-01T03:27:12;97287.00;;;4.11;70.18
73024;BME280;61199;47.526;8.538;2023-02-01T03:29:52;97287.41;;;4.37;69.72
73024;BME280;61199;47.526;8.538;2023-02-01T03:32:21;97292.00;;;4.49;68.69
73024;BME280;61199;47.526;8.538;2023-02-01T03:34:48;97288.19;;;4.39;69.17
73024;BME280;61199;47.526;8.538;2023-02-01T03:37:24;97288.19;;;4.39;69.12
73024;BME280;61199;47.526;8.538;2023-02-01T03:39:58;97285.25;;;4.28;69.38
73024;BME280;61199;47.526;8.538;2023-02-01T03:42:35;97275.34;;;4.53;68.63
73024;BME280;61199;47.526;8.538;2023-02-01T03:47:42;97271.72;;;3.71;70.71
73024;BME280;61199;47.526;8.538;2023-02-01T03:50:14;97285.38;;;3.37;72.71
73024;BME280;61199;47.526;8.538;2023-02-01T03:52:44;97289.69;;;3.18;74.02
73024;BME280;61199;47.526;8.538;2023-02-01T03:55:13;97285.03;;;3.26;73.73
73024;BME280;61199;47.526;8.538;2023-02-01T03:57:48;97285.88;;;3.27;73.51
73024;BME280;61199;47.526;8.538;2023-02-01T04:00:20;97284.56;;;2.98;74.81
73024;BME280;61199;47.526;8.538;2023-02-01T04:02:48;97306.34;;;2.75;76.10
73024;BME280;61199;47.526;8.538;2023-02-01T04:05:15;97311.66;;;2.72;76.52
73024;BME280;61199;47.526;8.538;2023-02-01T04:07:41;97311.38;;;2.78;76.37
73024;BME280;61199;47.526;8.538;2023-02-01T04:10:09;97314.81;;;2.78;76.25
73024;BME280;61199;47.526;8.538;2023-02-01T04:12:36;97317.66;;;2.72;76.67
73024;BME280;61199;47.526;8.538;2023-02-01T04:15:03;97319.97;;;2.78;76.75
73024;BME280;61199;47.526;8.538;2023-02-01T04:17:29;97319.59;;;2.67;77.05
73024;BME280;61199;47.526;8.538;2023-02-01T04:19:56;97319.41;;;2.72;76.74
73024;BME280;61199;47.526;8.538;2023-02-01T04:22:22;97319.53;;;2.69;76.16
73024;BME280;61199;47.526;8.538;2023-02-01T04:24:49;97323.03;;;2.68;76.56
73024;BME280;61199;47.526;8.538;2023-02-01T04:27:15;97323.81;;;2.70;76.45
73024;BME280;61199;47.526;8.538;2023-02-01T04:29:42;97332.84;;;2.79;76.55
73024;BME280;61199;47.526;8.538;2023-02-01T04:32:08;97327.72;;;2.78;75.69
73024;BME280;61199;47.526;8.538;2023-02-01T04:34:34;97343.56;;;2.90;75.37
73024;BME280;61199;47.526;8.538;2023-02-01T04:37:01;97348.63;;;2.93;75.48
73024;BME280;61199;47.526;8.538;2023-02-01T04:39:28;97358.13;;;2.93;75.07
73024;BME280;61199;47.526;8.538;2023-02-01T04:41:54;97357.69;;;2.83;75.93
73024;BME280;61199;47.526;8.538;2023-02-01T04:44:21;97369.25;;;2.75;76.21
73024;BME280;61199;47.526;8.538;2023-02-01T04:46:48;97364.66;;;2.81;75.98
73024;BME280;61199;47.526;8.538;2023-02-01T04:49:15;97365.84;;;2.94;76.00
73024;BME280;61199;47.526;8.538;2023-02-01T04:51:42;97361.28;;;2.99;75.58
73024;BME280;61199;47.526;8.538;2023-02-01T04:54:09;97373.81;;;3.08;75.42
73024;BME280;61199;47.526;8.538;2023-02-01T04:56:37;97372.66;;;3.15;75.28
73024;BME280;61199;47.526;8.538;2023-02-01T04:59:04;97369.19;;;2.96;75.27
73024;BME280;61199;47.526;8.538;2023-02-01T05:01:31;97363.34;;;3.11;75.68
73024;BME280;61199;47.526;8.538;2023-02-01T05:03:58;97360.66;;;2.94;75.64
73024;BME280;61199;47.526;8.538;2023-02-01T05:06:24;97375.09;;;3.18;75.21
73024;BME280;61199;47.526;8.538;2023-02-01T05:08:50;97373.88;;;3.45;74.20
73024;BME280;61199;47.526;8.538;2023-02-01T05:11:17;97378.69;;;3.34;74.31
73024;BME280;61199;47.526;8.538;2023-02-01T05:14:02;97359.63;;;3.37;74.54
73024;BME280;61199;47.526;8.538;2023-02-01T05:16:28;97353.59;;;3.36;74.24
73024;BME280;61199;47.526;8.538;2023-02-01T05:18:54;97351.44;;;3.07;75.26
73024;BME280;61199;47.526;8.538;2023-02-01T05:21:21;97337.59;;;3.08;75.54
73024;BME280;61199;47.526;8.538;2023-02-01T05:23:47;97343.38;;;2.95;75.75
73024;BME280;61199;47.526;8.538;2023-02-01T05:26:32;97333.22;;;2.90;76.27
73024;BME280;61199;47.526;8.538;2023-02-01T05:28:59;97340.22;;;2.88;75.87
73024;BME280;61199;47.526;8.538;2023-02-01T05:31:26;97326.38;;;2.89;75.96
73024;BME280;61199;47.526;8.538;2023-02-01T05:33:52;97329.53;;;2.96;75.62
73024;BME280;61199;47.526;8.538;2023-02-01T05:36:19;97323.19;;;3.03;76.26
73024;BME280;61199;47.526;8.538;2023-02-01T05:38:45;97332.72;;;3.02;76.37
73024;BME280;61199;47.526;8.538;2023-02-01T05:41:11;97339.63;;;3.02;75.70
73024;BME280;61199;47.526;8.538;2023-02-01T05:43:38;97343.00;;;2.84;75.93
73024;BME280;61199;47.526;8.538;2023-02-01T05:46:04;97341.88;;;2.89;76.04
73024;BME280;61199;47.526;8.538;2023-02-01T05:48:31;97348.88;;;2.87;76.69
73024;BME280;61199;47.526;8.538;2023-02-01T05:50:57;97350.13;;;2.79;76.43
73024;BME280;61199;47.526;8.538;2023-02-01T05:53:23;97357.09;;;2.77;76.42
73024;BME280;61199;47.526;8.538;2023-02-01T05:55:50;97362.16;;;2.80;76.43
73024;BME280;61199;47.526;8.538;2023-02-01T05:58:16;97361.28;;;2.79;76.42
73024;BME280;61199;47.526;8.538;2023-02-01T06:00:42;97363.63;;;2.85;76.86
73024;BME280;61199;47.526;8.538;2023-02-01T06:03:09;97358.06;;;2.94;75.60
73024;BME280;61199;47.526;8.538;2023-02-01T06:05:35;97340.78;;;2.95;75.92
73024;BME280;61199;47.526;8.538;2023-02-01T06:08:03;97347.38;;;3.02;75.56
73024;BME280;61199;47.526;8.538;2023-02-01T06:10:29;97344.75;;;3.03;75.21
73024;BME280;61199;47.526;8.538;2023-02-01T06:12:56;97351.84;;;2.98;74.97
73024;BME280;61199;47.526;8.538;2023-02-01T06:15:22;97358.69;;;2.99;75.18
73024;BME280;61199;47.526;8.538;2023-02-01T06:17:48;97359.94;;;2.91;75.41
73024;BME280;61199;47.526;8.538;2023-02-01T06:20:15;97375.31;;;2.94;75.73
73024;BME280;61199;47.526;8.538;2023-02-01T06:22:42;97355.72;;;2.88;75.86
73024;BME280;61199;47.526;8.538;2023-02-01T06:25:09;97352.13;;;2.92;75.60
73024;BME280;61199;47.526;8.538;2023-02-01T06:27:36;97366.84;;;2.90;75.25
73024;BME280;61199;47.526;8.538;2023-02-01T06:30:04;97355.41;;;2.96;75.05
73024;BME280;61199;47.526;8.538;2023-02-01T06:32:31;97359.34;;;3.04;74.88
73024;BME280;61199;47.526;8.538;2023-02-01T06:34:57;97379.13;;;3.05;75.07
73024;BME280;61199;47.526;8.538;2023-02-01T06:37:24;97364.19;;;3.12;74.78
73024;BME280;61199;47.526;8.538;2023-02-01T06:39:51;97380.41;;;3.15;74.33
73024;BME280;61199;47.526;8.538;2023-02-01T06:42:17;97375.38;;;3.12;74.33
73024;BME280;61199;47.526;8.538;2023-02-01T06:44:44;97377.06;;;3.13;74.42
73024;BME280;61199;47.526;8.538;2023-02-01T06:47:10;97388.28;;;3.32;73.93
73024;BME280;61199;47.526;8.538;2023-02-01T06:49:36;97399.22;;;3.39;73.58
73024;BME280;61199;47.526;8.538;2023-02-01T06:52:03;97394.75;;;3.42;74.03
73024;BME280;61199;47.526;8.538;2023-02-01T06:54:29;97408.59;;;3.41;74.05
73024;BME280;61199;47.526;8.538;2023-02-01T06:56:58;97406.78;;;3.43;74.29
73024;BME280;61199;47.526;8.538;2023-02-01T06:59:24;97424.56;;;3.51;74.54
73024;BME280;61199;47.526;8.538;2023-02-01T07:01:51;97427.25;;;3.09;75.88
73024;BME280;61199;47.526;8.538;2023-02-01T07:04:17;97431.38;;;3.33;75.86
73024;BME280;61199;47.526;8.538;2023-02-01T07:06:43;97442.19;;;3.43;76.51
73024;BME280;61199;47.526;8.538;2023-02-01T07:09:10;97453.59;;;3.19;76.85
73024;BME280;61199;47.526;8.538;2023-02-01T07:11:38;97461.94;;;3.05;78.93
73024;BME280;61199;47.526;8.538;2023-02-01T07:14:11;97455.41;;;3.17;79.77
73024;BME280;61199;47.526;8.538;2023-02-01T07:16:38;97460.41;;;3.01;80.35
73024;BME280;61199;47.526;8.538;2023-02-01T07:19:04;97463.94;;;2.99;80.98
73024;BME280;61199;47.526;8.538;2023-02-01T07:21:31;97463.22;;;3.15;80.20
73024;BME280;61199;47.526;8.538;2023-02-01T07:23:58;97473.59;;;3.15;80.13
73024;BME280;61199;47.526;8.538;2023-02-01T07:26:24;97472.09;;;2.90;80.93
73024;BME280;61199;47.526;8.538;2023-02-01T07:28:50;97472.66;;;2.77;82.13
73024;BME280;61199;47.526;8.538;2023-02-01T07:31:18;97473.19;;;2.84;82.16
73024;BME280;61199;47.526;8.538;2023-02-01T07:33:50;97473.91;;;2.67;83.18
73024;BME280;61199;47.526;8.538;2023-02-01T07:36:21;97461.41;;;2.56;83.63
73024;BME280;61199;47.526;8.538;2023-02-01T07:38:47;97460.78;;;2.51;83.93
73024;BME280;61199;47.526;8.538;2023-02-01T07:41:14;97458.38;;;2.47;84.29
73024;BME280;61199;47.526;8.538;2023-02-01T07:43:41;97454.56;;;2.34;85.07
73024;BME280;61199;47.526;8.538;2023-02-01T07:46:09;97459.72;;;2.34;85.56
73024;BME280;61199;47.526;8.538;2023-02-01T07:48:36;97449.44;;;2.32;84.96
73024;BME280;61199;47.526;8.538;2023-02-01T07:51:09;97455.41;;;2.34;85.46
73024;BME280;61199;47.526;8.538;2023-02-01T07:53:36;97466.03;;;2.27;85.14
73024;BME280;61199;47.526;8.538;2023-02-01T07:56:04;97454.00;;;2.26;85.82
73024;BME280;61199;47.526;8.538;2023-02-01T07:58:30;97448.63;;;2.32;85.77
73024;BME280;61199;47.526;8.538;2023-02-01T08:00:57;97457.00;;;2.37;85.64
73024;BME280;61199;47.526;8.538;2023-02-01T08:03:41;97439.19;;;2.52;85.15
73024;BME280;61199;47.526;8.538;2023-02-01T08:06:08;97443.63;;;2.49;85.20
73024;BME280;61199;47.526;8.538;2023-02-01T08:08:34;97450.25;;;2.56;84.69
73024;BME280;61199;47.526;8.538;2023-02-01T08:11:03;97455.00;;;2.65;84.19
73024;BME280;61199;47.526;8.538;2023-02-01T08:13:30;97440.94;;;2.72;83.84
73024;BME280;61199;47.526;8.538;2023-02-01T08:16:01;97434.09;;;2.90;84.23
73024;BME280;61199;47.526;8.538;2023-02-01T08:18:28;97438.25;;;2.75;83.81
73024;BME280;61199;47.526;8.538;2023-02-01T08:20:55;97437.81;;;2.64;84.37
73024;BME280;61199;47.526;8.538;2023-02-01T08:23:22;97448.13;;;2.65;84.32
73024;BME280;61199;47.526;8.538;2023-02-01T08:25:49;97449.03;;;2.64;84.46
73024;BME280;61199;47.526;8.538;2023-02-01T08:28:15;97456.34;;;2.75;84.69
73024;BME280;61199;47.526;8.538;2023-02-01T08:30:41;97460.50;;;2.78;83.69
73024;BME280;61199;47.526;8.538;2023-02-01T08:33:09;97460.31;;;2.83;83.42
73024;BME280;61199;47.526;8.538;2023-02-01T08:35:36;97455.00;;;2.86;83.19
73024;BME280;61199;47.526;8.538;2023-02-01T08:38:09;97463.28;;;2.94;83.19
73024;BME280;61199;47.526;8.538;2023-02-01T08:40:35;97456.66;;;2.87;82.51
73024;BME280;61199;47.526;8.538;2023-02-01T08:43:02;97453.50;;;2.80;82.72
73024;BME280;61199;47.526;8.538;2023-02-01T08:45:29;97443.69;;;2.88;83.05
73024;BME280;61199;47.526;8.538;2023-02-01T08:47:56;97460.50;;;2.98;82.50
73024;BME280;61199;47.526;8.538;2023-02-01T08:50:24;97456.47;;;2.91;83.13
73024;BME280;61199;47.526;8.538;2023-02-01T08:52:51;97451.44;;;2.88;82.44
73024;BME280;61199;47.526;8.538;2023-02-01T08:55:18;97449.75;;;2.87;82.55
73024;BME280;61199;47.526;8.538;2023-02-01T08:57:45;97463.47;;;2.89;81.99
73024;BME280;61199;47.526;8.538;2023-02-01T09:00:14;97463.47;;;2.89;81.89
73024;BME280;61199;47.526;8.538;2023-02-01T09:02:42;97469.03;;;3.00;81.31
73024;BME280;61199;47.526;8.538;2023-02-01T09:05:08;97483.75;;;3.00;80.91
73024;BME280;61199;47.526;8.538;2023-02-01T09:07:35;97457.16;;;2.96;81.24
73024;BME280;61199;47.526;8.538;2023-02-01T09:10:02;97459.41;;;3.04;80.26
73024;BME280;61199;47.526;8.538;2023-02-01T09:12:31;97453.28;;;3.06;79.76
73024;BME280;61199;47.526;8.538;2023-02-01T09:14:58;97464.91;;;3.16;79.51
73024;BME280;61199;47.526;8.538;2023-02-01T09:17:27;97464.91;;;3.16;79.20
73024;BME280;61199;47.526;8.538;2023-02-01T09:19:54;97461.22;;;3.22;79.52
73024;BME280;61199;47.526;8.538;2023-02-01T09:22:21;97470.56;;;3.26;78.61
73024;BME280;61199;47.526;8.538;2023-02-01T09:24:47;97462.22;;;3.19;78.59
73024;BME280;61199;47.526;8.538;2023-02-01T09:27:14;97464.91;;;3.16;78.60
73024;BME280;61199;47.526;8.538;2023-02-01T09:29:40;97465.78;;;3.17;78.75
73024;BME280;61199;47.526;8.538;2023-02-01T09:32:07;97456.25;;;3.17;78.91
73024;BME280;61199;47.526;8.538;2023-02-01T09:34:33;97461.41;;;3.17;78.25
73024;BME280;61199;47.526;8.538;2023-02-01T09:37:00;97474.75;;;3.28;77.84
73024;BME280;61199;47.526;8.538;2023-02-01T09:39:27;97479.53;;;3.37;77.37
73024;BME280;61199;47.526;8.538;2023-02-01T09:42:02;97479.41;;;3.40;77.53
73024;BME280;61199;47.526;8.538;2023-02-01T09:47:17;97487.50;;;3.53;76.52
73024;BME280;61199;47.526;8.538;2023-02-01T09:49:54;97497.38;;;3.63;77.06
73024;BME280;61199;47.526;8.538;2023-02-01T09:55:15;97480.16;;;3.62;76.87
73024;BME280;61199;47.526;8.538;2023-02-01T09:58:00;97469.09;;;3.59;76.95
73024;BME280;61199;47.526;8.538;2023-02-01T10:00:36;97477.56;;;3.62;77.83
73024;BME280;61199;47.526;8.538;2023-02-01T10:03:04;97478.88;;;3.52;78.05
73024;BME280;61199;47.526;8.538;2023-02-01T10:05:44;97484.38;;;3.65;78.48
73024;BME280;61199;47.526;8.538;2023-02-01T10:08:19;97478.47;;;3.61;78.86
73024;BME280;61199;47.526;8.538;2023-02-01T10:10:59;97477.19;;;3.51;78.26
73024;BME280;61199;47.526;8.538;2023-02-01T10:13:54;97462.91;;;3.43;79.38
73024;BME280;61199;47.526;8.538;2023-02-01T10:16:37;97460.91;;;3.49;78.89
73024;BME280;61199;47.526;8.538;2023-02-01T10:19:28;97462.38;;;3.55;78.96
73024;BME280;61199;47.526;8.538;2023-02-01T10:22:09;97466.09;;;3.68;78.46
73024;BME280;61199;47.526;8.538;2023-02-01T10:24:41;97486.34;;;3.78;77.71
73024;BME280;61199;47.526;8.538;2023-02-01T10:27:20;97478.38;;;3.83;77.82
73024;BME280;61199;47.526;8.538;2023-02-01T10:29:54;97470.81;;;3.78;77.02
73024;BME280;61199;47.526;8.538;2023-02-01T10:32:24;97468.56;;;3.89;77.79
73024;BME280;61199;47.526;8.538;2023-02-01T10:35:21;97447.03;;;3.89;77.03
73024;BME280;61199;47.526;8.538;2023-02-01T10:37:48;97449.06;;;4.01;76.24
73024;BME280;61199;47.526;8.538;2023-02-01T10:40:24;97449.53;;;4.09;76.16
73024;BME280;61199;47.526;8.538;2023-02-01T10:42:54;97457.53;;;4.04;75.48
73024;BME280;61199;47.526;8.538;2023-02-01T10:45:26;97437.56;;;4.06;76.26
73024;BME280;61199;47.526;8.538;2023-02-01T10:47:55;97451.22;;;4.10;75.60
73024;BME280;61199;47.526;8.538;2023-02-01T10:50:46;97444.00;;;4.16;75.17
73024;BME280;61199;47.526;8.538;2023-02-01T10:53:21;97431.31;;;4.29;75.30
73024;BME280;61199;47.526;8.538;2023-02-01T10:55:54;97425.63;;;4.39;74.70
73024;BME280;61199;47.526;8.538;2023-02-01T10:58:28;97424.56;;;4.43;74.60
73024;BME280;61199;47.526;8.538;2023-02-01T11:01:01;97426.56;;;4.55;74.02
73024;BME280;61199;47.526;8.538;2023-02-01T11:03:41;97424.75;;;4.74;74.07
73024;BME280;61199;47.526;8.538;2023-02-01T11:06:12;97416.84;;;4.77;72.99
73024;BME280;61199;47.526;8.538;2023-02-01T11:08:45;97410.56;;;4.81;73.08
73024;BME280;61199;47.526;8.538;2023-02-01T11:11:13;97401.97;;;4.98;72.46
73024;BME280;61199;47.526;8.538;2023-02-01T11:13:40;97389.03;;;5.13;72.29
73024;BME280;61199;47.526;8.538;2023-02-01T11:16:11;97405.91;;;5.22;71.47
73024;BME280;61199;47.526;8.538;2023-02-01T11:18:38;97390.22;;;5.40;71.52
73024;BME280;61199;47.526;8.538;2023-02-01T11:21:06;97411.03;;;5.56;70.72
73024;BME280;61199;47.526;8.538;2023-02-01T11:23:40;97366.81;;;5.57;70.59
73024;BME280;61199;47.526;8.538;2023-02-01T11:26:28;97381.53;;;5.57;70.88
73024;BME280;61199;47.526;8.538;2023-02-01T11:29:05;97375.09;;;5.63;70.26
73024;BME280;61199;47.526;8.538;2023-02-01T11:31:36;97377.69;;;5.80;70.22
73024;BME280;61199;47.526;8.538;2023-02-01T11:34:14;97383.13;;;5.91;70.19
73024;BME280;61199;47.526;8.538;2023-02-01T11:36:45;97375.25;;;6.24;69.77
73024;BME280;61199;47.526;8.538;2023-02-01T11:42:01;97377.22;;;6.50;68.63
73024;BME280;61199;47.526;8.538;2023-02-01T11:44:33;97364.00;;;6.68;68.33
73024;BME280;61199;47.526;8.538;2023-02-01T11:49:45;97353.38;;;6.57;67.79
73024;BME280;61199;47.526;8.538;2023-02-01T11:52:29;97347.44;;;6.69;67.37
73024;BME280;61199;47.526;8.538;2023-02-01T11:55:22;97370.50;;;6.46;67.33
73024;BME280;61199;47.526;8.538;2023-02-01T11:58:12;97361.44;;;6.53;67.89
73024;BME280;61199;47.526;8.538;2023-02-01T12:01:03;97360.94;;;6.46;68.31
73024;BME280;61199;47.526;8.538;2023-02-01T12:09:09;97349.75;;;6.60;67.83
73024;BME280;61199;47.526;8.538;2023-02-01T12:25:21;97323.97;;;6.26;68.25
73024;BME280;61199;47.526;8.538;2023-02-01T12:28:04;97314.59;;;6.08;68.59
73024;BME280;61199;47.526;8.538;2023-02-01T12:30:48;97308.47;;;6.09;68.12
73024;BME280;61199;47.526;8.538;2023-02-01T12:33:43;97323.56;;;6.18;67.90
73024;BME280;61199;47.526;8.538;2023-02-01T12:36:55;97319.63;;;6.11;67.98
73024;BME280;61199;47.526;8.538;2023-02-01T12:39:32;97321.97;;;6.31;67.97
73024;BME280;61199;47.526;8.538;2023-02-01T12:44:47;97314.56;;;6.39;67.97
73024;BME280;61199;47.526;8.538;2023-02-01T12:47:28;97312.97;;;6.36;67.41
73024;BME280;61199;47.526;8.538;2023-02-01T12:50:05;97325.63;;;6.27;67.86
73024;BME280;61199;47.526;8.538;2023-02-01T12:52:43;97308.94;;;6.31;67.45
73024;BME280;61199;47.526;8.538;2023-02-01T12:55:23;97312.63;;;6.27;69.20
73024;BME280;61199;47.526;8.538;2023-02-01T12:58:22;97313.97;;;6.34;69.30
73024;BME280;61199;47.526;8.538;2023-02-01T13:01:03;97310.19;;;6.83;70.37
73024;BME280;61199;47.526;8.538;2023-02-01T13:03:38;97307.56;;;7.26;68.70
73024;BME280;61199;47.526;8.538;2023-02-01T13:06:10;97295.63;;;7.64;67.22
73024;BME280;61199;47.526;8.538;2023-02-01T13:08:49;97298.97;;;7.66;64.81
73024;BME280;61199;47.526;8.538;2023-02-01T13:11:27;97307.53;;;6.55;67.58
73024;BME280;61199;47.526;8.538;2023-02-01T13:16:49;97304.47;;;5.88;69.45
73024;BME280;61199;47.526;8.538;2023-02-01T13:19:22;97303.13;;;5.81;69.57
73024;BME280;61199;47.526;8.538;2023-02-01T13:21:56;97298.53;;;5.86;68.97
73024;BME280;61199;47.526;8.538;2023-02-01T13:24:44;97310.00;;;5.82;68.30
73024;BME280;61199;47.526;8.538;2023-02-01T13:27:14;97292.22;;;5.90;67.27
73024;BME280;61199;47.526;8.538;2023-02-01T13:29:51;97294.41;;;5.82;67.31
73024;BME280;61199;47.526;8.538;2023-02-01T13:36:23;97289.88;;;5.85;65.53
73024;BME280;61199;47.526;8.538;2023-02-01T13:39:11;97280.16;;;5.89;65.58
73024;BME280;61199;47.526;8.538;2023-02-01T13:41:50;97279.63;;;5.98;65.15
73024;BME280;61199;47.526;8.538;2023-02-01T13:44:40;97279.81;;;5.95;63.57
73024;BME280;61199;47.526;8.538;2023-02-01T13:47:25;97277.97;;;5.97;62.30
73024;BME280;61199;47.526;8.538;2023-02-01T13:49:54;97271.91;;;6.12;62.15
73024;BME280;61199;47.526;8.538;2023-02-01T13:52:27;97276.25;;;6.11;61.70
73024;BME280;61199;47.526;8.538;2023-02-01T13:57:50;97282.69;;;6.20;60.67
73024;BME280;61199;47.526;8.538;2023-02-01T14:21:25;97304.25;;;6.06;58.81
73024;BME280;61199;47.526;8.538;2023-02-01T14:26:25;97318.78;;;6.10;58.72
73024;BME280;61199;47.526;8.538;2023-02-01T14:29:00;97311.94;;;5.94;59.72
73024;BME280;61199;47.526;8.538;2023-02-01T14:31:42;97309.16;;;5.97;59.91
73024;BME280;61199;47.526;8.538;2023-02-01T14:34:16;97314.34;;;5.97;59.59
73024;BME280;61199;47.526;8.538;2023-02-01T14:37:07;97317.13;;;5.94;60.05
73024;BME280;61199;47.526;8.538;2023-02-01T14:39:40;97305.44;;;6.01;59.97
73024;BME280;61199;47.526;8.538;2023-02-01T14:44:57;97313.34;;;5.84;60.56
73024;BME280;61199;47.526;8.538;2023-02-01T14:47:41;97322.06;;;6.14;61.60
73024;BME280;61199;47.526;8.538;2023-02-01T14:50:20;97332.94;;;6.36;60.98
73024;BME280;61199;47.526;8.538;2023-02-01T14:58:45;97342.00;;;6.29;59.93
73024;BME280;61199;47.526;8.538;2023-02-01T15:04:00;97343.13;;;5.94;60.75
73024;BME280;61199;47.526;8.538;2023-02-01T15:06:41;97353.78;;;5.89;61.69
73024;BME280;61199;47.526;8.538;2023-02-01T15:09:12;97342.72;;;5.86;62.03
73024;BME280;61199;47.526;8.538;2023-02-01T15:14:47;97360.94;;;5.69;62.43